sensor_id;sensor_type;location;lat;lon;timestamp;P1;durP1;ratioP1;P2;durP2;ratioP2
15216;SDS011;7711;46.634;14.318;2023-07-13T00:00:03;8.85;;;5.03;;
15216;SDS011;7711;46.634;14.318;2023-07-13T00:02:33;5.70;;;4.70;;
15216;SDS011;7711;46.634;14.318;2023-07-13T00:05:00;7.63;;;4.47;;
15216;SDS011;7711;46.634;14.318;2023-07-13T00:07:27;7.75;;;4.63;;
15216;SDS011;7711;46.634;14.318;2023-07-13T00:09:56;8.35;;;4.57;;
15216;SDS011;7711;46.634;14.318;2023-07-13T00:12:25;9.93;;;5.28;;
15216;SDS011;7711;46.634;14.318;2023-07-13T00:14:55;6.57;;;4.75;;
15216;SDS011;7711;46.634;14.318;2023-07-13T00:17:23;8.32;;;4.78;;
15216;SDS011;7711;46.634;14.318;2023-07-13T00:19:50;9.98;;;5.30;;
15216;SDS011;7711;46.634;14.318;2023-07-13T00:22:17;9.10;;;5.07;;
15216;SDS011;7711;46.634;14.318;2023-07-13T00:24:44;11.63;;;5.15;;
15216;SDS011;7711;46.634;14.318;2023-07-13T00:27:11;10.30;;;4.63;;
15216;SDS011;7711;46.634;14.318;2023-07-13T00:29:38;9.95;;;4.40;;
15216;SDS011;7711;46.634;14.318;2023-07-13T00:32:08;8.80;;;4.05;;
15216;SDS011;7711;46.634;14.318;2023-07-13T00:34:36;10.00;;;4.78;;
15216;SDS011;7711;46.634;14.318;2023-07-13T00:37:04;9.43;;;4.55;;
15216;SDS011;7711;46.634;14.318;2023-07-13T00:39:32;11.77;;;5.55;;
15216;SDS011;7711;46.634;14.318;2023-07-13T00:41:59;12.48;;;5.20;;
15216;SDS011;7711;46.634;14.318;2023-07-13T00:44:26;4.72;;;3.72;;
15216;SDS011;7711;46.634;14.318;2023-07-13T00:46:54;0.13;;;0.13;;
15216;SDS011;7711;46.634;14.318;2023-07-13T00:49:25;0.10;;;0.10;;
15216;SDS011;7711;46.634;14.318;2023-07-13T00:51:57;0.20;;;0.20;;
15216;SDS011;7711;46.634;14.318;2023-07-13T00:54:28;0.13;;;0.13;;
15216;SDS011;7711;46.634;14.318;2023-07-13T00:56:59;0.20;;;0.20;;
15216;SDS011;7711;46.634;14.318;2023-07-13T00:59:29;0.10;;;0.10;;
15216;SDS011;7711;46.634;14.318;2023-07-13T01:01:57;0.10;;;0.10;;
15216;SDS011;7711;46.634;14.318;2023-07-13T01:04:26;0.20;;;0.20;;
15216;SDS011;7711;46.634;14.318;2023-07-13T01:06:53;0.20;;;0.20;;
15216;SDS011;7711;46.634;14.318;2023-07-13T01:09:20;0.30;;;0.30;;
15216;SDS011;7711;46.634;14.318;2023-07-13T01:11:47;0.20;;;0.20;;
15216;SDS011;7711;46.634;14.318;2023-07-13T01:14:14;0.13;;;0.13;;
15216;SDS011;7711;46.634;14.318;2023-07-13T01:16:45;0.17;;;0.17;;
15216;SDS011;7711;46.634;14.318;2023-07-13T01:19:17;0.10;;;0.10;;
15216;SDS011;7711;46.634;14.318;2023-07-13T01:21:56;0.15;;;0.15;;
15216;SDS011;7711;46.634;14.318;2023-07-13T01:24:23;0.10;;;0.10;;
15216;SDS011;7711;46.634;14.318;2023-07-13T01:26:50;0.17;;;0.17;;
15216;SDS011;7711;46.634;14.318;2023-07-13T01:29:17;0.17;;;0.17;;
15216;SDS011;7711;46.634;14.318;2023-07-13T01:31:44;0.13;;;0.13;;
15216;SDS011;7711;46.634;14.318;2023-07-13T01:34:11;0.10;;;0.10;;
15216;SDS011;7711;46.634;14.318;2023-07-13T01:36:38;0.20;;;0.20;;
15216;SDS011;7711;46.634;14.318;2023-07-13T01:39:06;0.10;;;0.10;;
15216;SDS011;7711;46.634;14.318;2023-07-13T01:41:33;0.20;;;0.20;;
15216;SDS011;7711;46.634;14.318;2023-07-13T01:44:00;0.20;;;0.20;;
15216;SDS011;7711;46.634;14.318;2023-07-13T01:46:27;0.10;;;0.10;;
15216;SDS011;7711;46.634;14.318;2023-07-13T01:48:54;0.10;;;0.10;;
15216;SDS011;7711;46.634;14.318;2023-07-13T01:51:21;0.10;;;0.10;;
15216;SDS011;7711;46.634;14.318;2023-07-13T01:53:48;0.20;;;0.20;;
15216;SDS011;7711;46.634;14.318;2023-07-13T01:56:17;0.10;;;0.10;;
15216;SDS011;7711;46.634;14.318;2023-07-13T01:58:44;0.17;;;0.17;;
15216;SDS011;7711;46.634;14.318;2023-07-13T02:01:11;0.20;;;0.20;;
15216;SDS011;7711;46.634;14.318;2023-07-13T02:03:38;0.10;;;0.10;;
15216;SDS011;7711;46.634;14.318;2023-07-13T02:06:05;0.10;;;0.10;;
15216;SDS011;7711;46.634;14.318;2023-07-13T02:08:32;0.10;;;0.10;;
15216;SDS011;7711;46.634;14.318;2023-07-13T02:10:59;0.10;;;0.10;;
15216;SDS011;7711;46.634;14.318;2023-07-13T02:13:28;4.20;;;1.23;;
15216;SDS011;7711;46.634;14.318;2023-07-13T02:15:54;1.90;;;1.30;;
15216;SDS011;7711;46.634;14.318;2023-07-13T02:18:21;1.58;;;1.40;;
15216;SDS011;7711;46.634;14.318;2023-07-13T02:20:48;2.78;;;1.50;;
15216;SDS011;7711;46.634;14.318;2023-07-13T02:23:15;3.75;;;2.05;;
15216;SDS011;7711;46.634;14.318;2023-07-13T02:25:42;2.03;;;1.50;;
15216;SDS011;7711;46.634;14.318;2023-07-13T02:28:09;4.68;;;2.00;;
15216;SDS011;7711;46.634;14.318;2023-07-13T02:30:37;2.72;;;1.85;;
15216;SDS011;7711;46.634;14.318;2023-07-13T02:33:04;3.22;;;2.17;;
15216;SDS011;7711;46.634;14.318;2023-07-13T02:35:32;14.95;;;2.03;;
15216;SDS011;7711;46.634;14.318;2023-07-13T02:37:59;1.90;;;1.52;;
15216;SDS011;7711;46.634;14.318;2023-07-13T02:40:25;2.70;;;1.88;;
15216;SDS011;7711;46.634;14.318;2023-07-13T02:42:52;4.25;;;2.03;;
15216;SDS011;7711;46.634;14.318;2023-07-13T02:45:19;3.78;;;2.08;;
15216;SDS011;7711;46.634;14.318;2023-07-13T02:47:48;4.80;;;1.90;;
15216;SDS011;7711;46.634;14.318;2023-07-13T02:50:15;4.47;;;2.22;;
15216;SDS011;7711;46.634;14.318;2023-07-13T02:52:42;3.85;;;1.88;;
15216;SDS011;7711;46.634;14.318;2023-07-13T02:55:09;2.63;;;2.20;;
15216;SDS011;7711;46.634;14.318;2023-07-13T02:57:36;3.65;;;2.38;;
15216;SDS011;7711;46.634;14.318;2023-07-13T03:00:03;6.28;;;2.80;;
15216;SDS011;7711;46.634;14.318;2023-07-13T03:02:32;6.97;;;2.90;;
15216;SDS011;7711;46.634;14.318;2023-07-13T03:05:01;6.22;;;2.72;;
15216;SDS011;7711;46.634;14.318;2023-07-13T03:07:28;4.95;;;2.40;;
15216;SDS011;7711;46.634;14.318;2023-07-13T03:09:56;4.70;;;2.65;;
15216;SDS011;7711;46.634;14.318;2023-07-13T03:12:23;5.05;;;3.35;;
15216;SDS011;7711;46.634;14.318;2023-07-13T03:14:51;4.88;;;3.00;;
15216;SDS011;7711;46.634;14.318;2023-07-13T03:17:18;4.13;;;3.00;;
15216;SDS011;7711;46.634;14.318;2023-07-13T03:19:45;6.00;;;3.25;;
15216;SDS011;7711;46.634;14.318;2023-07-13T03:22:16;4.72;;;3.08;;
15216;SDS011;7711;46.634;14.318;2023-07-13T03:24:42;5.85;;;2.72;;
15216;SDS011;7711;46.634;14.318;2023-07-13T03:27:10;3.33;;;2.55;;
15216;SDS011;7711;46.634;14.318;2023-07-13T03:29:37;4.97;;;3.70;;
15216;SDS011;7711;46.634;14.318;2023-07-13T03:32:04;6.30;;;3.78;;
15216;SDS011;7711;46.634;14.318;2023-07-13T03:34:32;4.93;;;3.33;;
15216;SDS011;7711;46.634;14.318;2023-07-13T03:36:59;4.82;;;3.15;;
15216;SDS011;7711;46.634;14.318;2023-07-13T03:39:27;5.78;;;2.72;;
15216;SDS011;7711;46.634;14.318;2023-07-13T03:41:54;5.30;;;2.70;;
15216;SDS011;7711;46.634;14.318;2023-07-13T03:44:21;3.90;;;2.63;;
15216;SDS011;7711;46.634;14.318;2023-07-13T03:46:48;5.53;;;3.30;;
15216;SDS011;7711;46.634;14.318;2023-07-13T03:49:15;8.45;;;3.50;;
15216;SDS011;7711;46.634;14.318;2023-07-13T03:51:41;6.05;;;3.13;;
15216;SDS011;7711;46.634;14.318;2023-07-13T03:54:08;4.32;;;2.90;;
15216;SDS011;7711;46.634;14.318;2023-07-13T03:56:37;6.55;;;3.60;;
15216;SDS011;7711;46.634;14.318;2023-07-13T03:59:04;6.15;;;3.33;;
15216;SDS011;7711;46.634;14.318;2023-07-13T04:01:31;4.90;;;2.95;;
15216;SDS011;7711;46.634;14.318;2023-07-13T04:03:57;3.22;;;2.85;;
15216;SDS011;7711;46.634;14.318;2023-07-13T04:06:26;5.53;;;2.90;;
15216;SDS011;7711;46.634;14.318;2023-07-13T04:08:55;5.43;;;3.05;;
15216;SDS011;7711;46.634;14.318;2023-07-13T04:11:27;4.82;;;2.97;;
15216;SDS011;7711;46.634;14.318;2023-07-13T04:13:58;5.05;;;2.63;;
15216;SDS011;7711;46.634;14.318;2023-07-13T04:16:25;5.68;;;3.17;;
15216;SDS011;7711;46.634;14.318;2023-07-13T04:18:52;6.15;;;3.10;;
15216;SDS011;7711;46.634;14.318;2023-07-13T04:21:24;5.55;;;3.22;;
15216;SDS011;7711;46.634;14.318;2023-07-13T04:23:51;5.35;;;3.00;;
15216;SDS011;7711;46.634;14.318;2023-07-13T04:26:18;8.13;;;3.28;;
15216;SDS011;7711;46.634;14.318;2023-07-13T04:28:48;4.80;;;3.28;;
15216;SDS011;7711;46.634;14.318;2023-07-13T04:31:16;6.03;;;3.28;;
15216;SDS011;7711;46.634;14.318;2023-07-13T04:33:43;5.43;;;3.90;;
15216;SDS011;7711;46.634;14.318;2023-07-13T04:36:10;6.40;;;4.00;;
15216;SDS011;7711;46.634;14.318;2023-07-13T04:38:37;7.10;;;4.22;;
15216;SDS011;7711;46.634;14.318;2023-07-13T04:41:05;7.70;;;3.60;;
15216;SDS011;7711;46.634;14.318;2023-07-13T04:43:33;4.82;;;4.30;;
15216;SDS011;7711;46.634;14.318;2023-07-13T04:46:03;5.88;;;4.28;;
15216;SDS011;7711;46.634;14.318;2023-07-13T04:48:32;9.23;;;4.25;;
15216;SDS011;7711;46.634;14.318;2023-07-13T04:50:59;6.32;;;3.88;;
15216;SDS011;7711;46.634;14.318;2023-07-13T04:53:27;6.30;;;3.70;;
15216;SDS011;7711;46.634;14.318;2023-07-13T04:55:54;6.40;;;3.85;;
15216;SDS011;7711;46.634;14.318;2023-07-13T04:58:21;5.72;;;4.20;;
15216;SDS011;7711;46.634;14.318;2023-07-13T05:00:49;6.30;;;3.45;;
15216;SDS011;7711;46.634;14.318;2023-07-13T05:03:16;7.28;;;3.13;;
15216;SDS011;7711;46.634;14.318;2023-07-13T05:05:53;5.63;;;3.95;;
15216;SDS011;7711;46.634;14.318;2023-07-13T05:08:21;4.95;;;3.20;;
15216;SDS011;7711;46.634;14.318;2023-07-13T05:10:48;4.75;;;2.88;;
15216;SDS011;7711;46.634;14.318;2023-07-13T05:13:15;5.45;;;2.78;;
15216;SDS011;7711;46.634;14.318;2023-07-13T05:15:41;6.43;;;2.85;;
15216;SDS011;7711;46.634;14.318;2023-07-13T05:18:08;5.10;;;2.58;;
15216;SDS011;7711;46.634;14.318;2023-07-13T05:20:35;4.97;;;2.97;;
15216;SDS011;7711;46.634;14.318;2023-07-13T05:23:04;3.97;;;2.80;;
15216;SDS011;7711;46.634;14.318;2023-07-13T05:25:30;4.53;;;2.80;;
15216;SDS011;7711;46.634;14.318;2023-07-13T05:27:57;4.15;;;2.70;;
15216;SDS011;7711;46.634;14.318;2023-07-13T05:30:24;6.38;;;2.88;;
15216;SDS011;7711;46.634;14.318;2023-07-13T05:32:51;2.92;;;2.58;;
15216;SDS011;7711;46.634;14.318;2023-07-13T05:35:18;3.97;;;2.90;;
15216;SDS011;7711;46.634;14.318;2023-07-13T05:37:45;5.10;;;3.10;;
15216;SDS011;7711;46.634;14.318;2023-07-13T05:40:13;3.05;;;2.70;;
15216;SDS011;7711;46.634;14.318;2023-07-13T05:42:40;9.18;;;3.03;;
15216;SDS011;7711;46.634;14.318;2023-07-13T05:45:08;4.38;;;2.92;;
15216;SDS011;7711;46.634;14.318;2023-07-13T05:47:35;9.73;;;3.20;;
15216;SDS011;7711;46.634;14.318;2023-07-13T05:50:02;3.33;;;3.00;;
15216;SDS011;7711;46.634;14.318;2023-07-13T05:52:29;5.68;;;3.03;;
15216;SDS011;7711;46.634;14.318;2023-07-13T05:54:56;5.18;;;2.95;;
15216;SDS011;7711;46.634;14.318;2023-07-13T05:57:25;10.27;;;3.33;;
15216;SDS011;7711;46.634;14.318;2023-07-13T05:59:51;5.53;;;3.17;;
15216;SDS011;7711;46.634;14.318;2023-07-13T06:02:18;4.85;;;3.20;;
15216;SDS011;7711;46.634;14.318;2023-07-13T06:04:45;6.13;;;2.90;;
15216;SDS011;7711;46.634;14.318;2023-07-13T06:07:12;4.40;;;2.70;;
15216;SDS011;7711;46.634;14.318;2023-07-13T06:09:39;6.88;;;3.00;;
15216;SDS011;7711;46.634;14.318;2023-07-13T06:12:06;6.70;;;3.28;;
15216;SDS011;7711;46.634;14.318;2023-07-13T06:14:35;4.68;;;3.08;;
15216;SDS011;7711;46.634;14.318;2023-07-13T06:17:02;7.90;;;2.90;;
15216;SDS011;7711;46.634;14.318;2023-07-13T06:19:29;4.07;;;2.50;;
15216;SDS011;7711;46.634;14.318;2023-07-13T06:21:56;7.15;;;3.17;;
15216;SDS011;7711;46.634;14.318;2023-07-13T06:24:24;4.40;;;2.70;;
15216;SDS011;7711;46.634;14.318;2023-07-13T06:26:51;3.25;;;2.58;;
15216;SDS011;7711;46.634;14.318;2023-07-13T06:29:18;4.55;;;2.72;;
15216;SDS011;7711;46.634;14.318;2023-07-13T06:31:46;6.93;;;3.50;;
15216;SDS011;7711;46.634;14.318;2023-07-13T06:34:13;7.63;;;2.95;;
15216;SDS011;7711;46.634;14.318;2023-07-13T06:36:40;6.93;;;3.00;;
15216;SDS011;7711;46.634;14.318;2023-07-13T06:39:07;5.82;;;2.72;;
15216;SDS011;7711;46.634;14.318;2023-07-13T06:41:34;5.65;;;2.83;;
15216;SDS011;7711;46.634;14.318;2023-07-13T06:44:01;4.60;;;2.60;;
15216;SDS011;7711;46.634;14.318;2023-07-13T06:46:28;6.53;;;2.90;;
15216;SDS011;7711;46.634;14.318;2023-07-13T06:48:57;3.08;;;2.55;;
15216;SDS011;7711;46.634;14.318;2023-07-13T06:51:23;4.82;;;2.67;;
15216;SDS011;7711;46.634;14.318;2023-07-13T06:53:51;3.25;;;2.30;;
15216;SDS011;7711;46.634;14.318;2023-07-13T06:56:19;3.15;;;2.50;;
15216;SDS011;7711;46.634;14.318;2023-07-13T06:58:46;9.63;;;3.63;;
15216;SDS011;7711;46.634;14.318;2023-07-13T07:01:13;9.93;;;2.90;;
15216;SDS011;7711;46.634;14.318;2023-07-13T07:03:40;4.15;;;2.90;;
15216;SDS011;7711;46.634;14.318;2023-07-13T07:06:11;2.92;;;2.50;;
15216;SDS011;7711;46.634;14.318;2023-07-13T07:08:40;3.72;;;2.60;;
15216;SDS011;7711;46.634;14.318;2023-07-13T07:11:08;3.78;;;2.63;;
15216;SDS011;7711;46.634;14.318;2023-07-13T07:13:37;4.45;;;2.55;;
15216;SDS011;7711;46.634;14.318;2023-07-13T07:16:04;5.00;;;2.85;;
15216;SDS011;7711;46.634;14.318;2023-07-13T07:18:31;2.95;;;2.58;;
15216;SDS011;7711;46.634;14.318;2023-07-13T07:20:58;8.00;;;2.92;;
15216;SDS011;7711;46.634;14.318;2023-07-13T07:23:27;3.45;;;2.38;;
15216;SDS011;7711;46.634;14.318;2023-07-13T07:25:54;2.70;;;2.42;;
15216;SDS011;7711;46.634;14.318;2023-07-13T07:28:21;3.65;;;2.40;;
15216;SDS011;7711;46.634;14.318;2023-07-13T07:30:48;3.15;;;2.53;;
15216;SDS011;7711;46.634;14.318;2023-07-13T07:33:18;5.32;;;2.50;;
15216;SDS011;7711;46.634;14.318;2023-07-13T07:35:45;3.90;;;2.35;;
15216;SDS011;7711;46.634;14.318;2023-07-13T07:38:12;2.92;;;2.13;;
15216;SDS011;7711;46.634;14.318;2023-07-13T07:40:40;2.40;;;2.10;;
15216;SDS011;7711;46.634;14.318;2023-07-13T07:43:08;4.22;;;2.20;;
15216;SDS011;7711;46.634;14.318;2023-07-13T07:45:36;2.63;;;2.42;;
15216;SDS011;7711;46.634;14.318;2023-07-13T07:48:03;2.60;;;2.40;;
15216;SDS011;7711;46.634;14.318;2023-07-13T07:50:31;5.25;;;2.33;;
15216;SDS011;7711;46.634;14.318;2023-07-13T07:52:58;4.35;;;2.50;;
15216;SDS011;7711;46.634;14.318;2023-07-13T07:55:27;2.83;;;2.33;;
15216;SDS011;7711;46.634;14.318;2023-07-13T07:57:55;3.05;;;2.42;;
15216;SDS011;7711;46.634;14.318;2023-07-13T08:00:23;4.63;;;2.58;;
15216;SDS011;7711;46.634;14.318;2023-07-13T08:02:49;5.43;;;2.92;;
15216;SDS011;7711;46.634;14.318;2023-07-13T08:05:17;5.85;;;2.80;;
15216;SDS011;7711;46.634;14.318;2023-07-13T08:07:44;4.50;;;2.78;;
15216;SDS011;7711;46.634;14.318;2023-07-13T08:10:10;4.05;;;2.55;;
15216;SDS011;7711;46.634;14.318;2023-07-13T08:12:38;4.63;;;2.70;;
15216;SDS011;7711;46.634;14.318;2023-07-13T08:15:09;14.55;;;4.10;;
15216;SDS011;7711;46.634;14.318;2023-07-13T08:17:38;6.18;;;2.90;;
15216;SDS011;7711;46.634;14.318;2023-07-13T08:20:05;6.07;;;3.00;;
15216;SDS011;7711;46.634;14.318;2023-07-13T08:22:34;2.83;;;2.30;;
15216;SDS011;7711;46.634;14.318;2023-07-13T08:25:01;3.05;;;2.40;;
15216;SDS011;7711;46.634;14.318;2023-07-13T08:27:28;2.95;;;2.65;;
15216;SDS011;7711;46.634;14.318;2023-07-13T08:29:57;3.00;;;2.58;;
15216;SDS011;7711;46.634;14.318;2023-07-13T08:32:25;3.50;;;2.72;;
15216;SDS011;7711;46.634;14.318;2023-07-13T08:34:52;7.22;;;3.00;;
15216;SDS011;7711;46.634;14.318;2023-07-13T08:37:19;4.30;;;2.45;;
15216;SDS011;7711;46.634;14.318;2023-07-13T08:39:46;3.65;;;2.60;;
15216;SDS011;7711;46.634;14.318;2023-07-13T08:42:15;4.22;;;2.92;;
15216;SDS011;7711;46.634;14.318;2023-07-13T08:44:55;4.55;;;2.88;;
15216;SDS011;7711;46.634;14.318;2023-07-13T08:47:31;4.57;;;2.85;;
15216;SDS011;7711;46.634;14.318;2023-07-13T08:50:01;3.45;;;2.80;;
15216;SDS011;7711;46.634;14.318;2023-07-13T08:52:30;4.82;;;2.70;;
15216;SDS011;7711;46.634;14.318;2023-07-13T08:55:01;4.03;;;2.65;;
15216;SDS011;7711;46.634;14.318;2023-07-13T08:57:32;3.92;;;2.60;;
15216;SDS011;7711;46.634;14.318;2023-07-13T09:00:01;4.75;;;3.00;;
15216;SDS011;7711;46.634;14.318;2023-07-13T09:02:34;3.88;;;2.63;;
15216;SDS011;7711;46.634;14.318;2023-07-13T09:05:10;3.97;;;2.63;;
15216;SDS011;7711;46.634;14.318;2023-07-13T09:07:50;3.83;;;2.40;;
15216;SDS011;7711;46.634;14.318;2023-07-13T09:10:28;2.95;;;2.55;;
15216;SDS011;7711;46.634;14.318;2023-07-13T09:13:03;3.25;;;2.85;;
15216;SDS011;7711;46.634;14.318;2023-07-13T09:15:41;4.30;;;2.63;;
15216;SDS011;7711;46.634;14.318;2023-07-13T09:18:13;3.97;;;2.50;;
15216;SDS011;7711;46.634;14.318;2023-07-13T09:20:46;3.65;;;2.55;;
15216;SDS011;7711;46.634;14.318;2023-07-13T09:23:17;5.07;;;2.25;;
15216;SDS011;7711;46.634;14.318;2023-07-13T09:25:47;3.97;;;2.20;;
15216;SDS011;7711;46.634;14.318;2023-07-13T09:28:20;3.17;;;2.03;;
15216;SDS011;7711;46.634;14.318;2023-07-13T09:30:51;4.65;;;2.67;;
15216;SDS011;7711;46.634;14.318;2023-07-13T09:33:23;2.38;;;2.05;;
15216;SDS011;7711;46.634;14.318;2023-07-13T09:35:54;4.68;;;2.25;;
15216;SDS011;7711;46.634;14.318;2023-07-13T09:38:22;2.00;;;1.85;;
15216;SDS011;7711;46.634;14.318;2023-07-13T09:40:58;3.28;;;2.17;;
15216;SDS011;7711;46.634;14.318;2023-07-13T09:43:29;3.50;;;2.40;;
15216;SDS011;7711;46.634;14.318;2023-07-13T09:45:56;2.58;;;2.05;;
15216;SDS011;7711;46.634;14.318;2023-07-13T09:48:24;2.70;;;2.20;;
15216;SDS011;7711;46.634;14.318;2023-07-13T09:51:01;3.85;;;2.10;;
15216;SDS011;7711;46.634;14.318;2023-07-13T09:53:38;2.42;;;2.08;;
15216;SDS011;7711;46.634;14.318;2023-07-13T09:56:18;2.83;;;2.40;;
15216;SDS011;7711;46.634;14.318;2023-07-13T09:58:45;2.85;;;2.33;;
15216;SDS011;7711;46.634;14.318;2023-07-13T10:01:12;3.33;;;2.10;;
15216;SDS011;7711;46.634;14.318;2023-07-13T10:03:51;2.40;;;2.20;;
15216;SDS011;7711;46.634;14.318;2023-07-13T10:06:19;2.45;;;2.00;;
15216;SDS011;7711;46.634;14.318;2023-07-13T10:08:48;3.17;;;2.47;;
15216;SDS011;7711;46.634;14.318;2023-07-13T10:11:17;4.32;;;2.40;;
15216;SDS011;7711;46.634;14.318;2023-07-13T10:13:50;2.80;;;2.25;;
15216;SDS011;7711;46.634;14.318;2023-07-13T10:16:20;2.50;;;2.30;;
15216;SDS011;7711;46.634;14.318;2023-07-13T10:18:51;3.80;;;2.60;;
15216;SDS011;7711;46.634;14.318;2023-07-13T10:21:23;3.30;;;2.53;;
15216;SDS011;7711;46.634;14.318;2023-07-13T10:23:55;5.22;;;2.60;;
15216;SDS011;7711;46.634;14.318;2023-07-13T10:26:31;3.97;;;2.58;;
15216;SDS011;7711;46.634;14.318;2023-07-13T10:29:01;3.53;;;2.30;;
15216;SDS011;7711;46.634;14.318;2023-07-13T10:34:17;3.47;;;2.60;;
15216;SDS011;7711;46.634;14.318;2023-07-13T10:36:45;4.57;;;2.75;;
15216;SDS011;7711;46.634;14.318;2023-07-13T10:39:15;4.38;;;2.50;;
15216;SDS011;7711;46.634;14.318;2023-07-13T10:41:46;4.22;;;2.60;;
15216;SDS011;7711;46.634;14.318;2023-07-13T10:44:19;6.40;;;3.13;;
15216;SDS011;7711;46.634;14.318;2023-07-13T10:46:51;5.95;;;2.80;;
15216;SDS011;7711;46.634;14.318;2023-07-13T10:49:21;14.05;;;3.50;;
15216;SDS011;7711;46.634;14.318;2023-07-13T10:51:49;4.57;;;2.60;;
15216;SDS011;7711;46.634;14.318;2023-07-13T10:54:18;4.55;;;2.70;;
15216;SDS011;7711;46.634;14.318;2023-07-13T10:56:49;4.85;;;2.80;;
15216;SDS011;7711;46.634;14.318;2023-07-13T10:59:20;3.70;;;3.08;;
15216;SDS011;7711;46.634;14.318;2023-07-13T11:01:54;3.80;;;2.72;;
15216;SDS011;7711;46.634;14.318;2023-07-13T11:04:25;3.97;;;2.58;;
15216;SDS011;7711;46.634;14.318;2023-07-13T11:06:56;3.88;;;2.40;;
15216;SDS011;7711;46.634;14.318;2023-07-13T11:09:32;4.63;;;2.78;;
15216;SDS011;7711;46.634;14.318;2023-07-13T11:12:08;5.82;;;2.58;;
15216;SDS011;7711;46.634;14.318;2023-07-13T11:15:03;27.63;;;5.68;;
15216;SDS011;7711;46.634;14.318;2023-07-13T11:17:37;45.03;;;8.50;;
15216;SDS011;7711;46.634;14.318;2023-07-13T11:23:26;3.53;;;2.35;;
15216;SDS011;7711;46.634;14.318;2023-07-13T11:25:58;4.20;;;2.42;;
15216;SDS011;7711;46.634;14.318;2023-07-13T11:28:26;2.75;;;2.22;;
15216;SDS011;7711;46.634;14.318;2023-07-13T11:31:00;3.00;;;2.50;;
15216;SDS011;7711;46.634;14.318;2023-07-13T11:33:53;4.57;;;2.60;;
15216;SDS011;7711;46.634;14.318;2023-07-13T11:36:27;7.47;;;2.92;;
15216;SDS011;7711;46.634;14.318;2023-07-13T11:39:04;3.13;;;2.75;;
15216;SDS011;7711;46.634;14.318;2023-07-13T11:41:43;4.30;;;2.72;;
15216;SDS011;7711;46.634;14.318;2023-07-13T11:44:14;4.43;;;2.58;;
15216;SDS011;7711;46.634;14.318;2023-07-13T11:46:46;3.17;;;2.78;;
15216;SDS011;7711;46.634;14.318;2023-07-13T11:49:16;8.02;;;4.10;;
15216;SDS011;7711;46.634;14.318;2023-07-13T11:51:45;8.00;;;3.40;;
15216;SDS011;7711;46.634;14.318;2023-07-13T11:54:17;5.25;;;3.10;;
15216;SDS011;7711;46.634;14.318;2023-07-13T11:56:51;4.40;;;3.05;;
15216;SDS011;7711;46.634;14.318;2023-07-13T11:59:19;3.70;;;2.83;;
15216;SDS011;7711;46.634;14.318;2023-07-13T12:01:48;4.18;;;3.50;;
15216;SDS011;7711;46.634;14.318;2023-07-13T12:04:20;4.47;;;3.53;;
15216;SDS011;7711;46.634;14.318;2023-07-13T12:06:56;4.85;;;3.20;;
15216;SDS011;7711;46.634;14.318;2023-07-13T12:09:26;4.95;;;3.20;;
15216;SDS011;7711;46.634;14.318;2023-07-13T12:11:53;4.57;;;3.28;;
15216;SDS011;7711;46.634;14.318;2023-07-13T12:14:20;5.35;;;3.20;;
15216;SDS011;7711;46.634;14.318;2023-07-13T12:16:50;4.40;;;3.10;;
15216;SDS011;7711;46.634;14.318;2023-07-13T12:19:17;5.75;;;3.63;;
15216;SDS011;7711;46.634;14.318;2023-07-13T12:21:47;4.75;;;3.00;;
15216;SDS011;7711;46.634;14.318;2023-07-13T12:24:15;3.92;;;3.05;;
15216;SDS011;7711;46.634;14.318;2023-07-13T12:26:44;3.95;;;3.00;;
15216;SDS011;7711;46.634;14.318;2023-07-13T12:29:17;5.75;;;2.90;;
15216;SDS011;7711;46.634;14.318;2023-07-13T12:31:44;5.00;;;2.92;;
15216;SDS011;7711;46.634;14.318;2023-07-13T12:34:13;3.25;;;2.55;;
15216;SDS011;7711;46.634;14.318;2023-07-13T12:36:45;4.13;;;3.03;;
15216;SDS011;7711;46.634;14.318;2023-07-13T12:39:16;3.75;;;2.67;;
15216;SDS011;7711;46.634;14.318;2023-07-13T12:41:46;3.63;;;2.65;;
15216;SDS011;7711;46.634;14.318;2023-07-13T12:44:15;7.32;;;3.00;;
15216;SDS011;7711;46.634;14.318;2023-07-13T12:46:52;3.45;;;2.72;;
15216;SDS011;7711;46.634;14.318;2023-07-13T12:49:22;4.40;;;2.90;;
15216;SDS011;7711;46.634;14.318;2023-07-13T12:51:57;2.90;;;2.60;;
15216;SDS011;7711;46.634;14.318;2023-07-13T12:54:27;4.00;;;2.50;;
15216;SDS011;7711;46.634;14.318;2023-07-13T12:56:55;2.67;;;2.47;;
15216;SDS011;7711;46.634;14.318;2023-07-13T12:59:25;5.18;;;2.60;;
15216;SDS011;7711;46.634;14.318;2023-07-13T13:01:58;3.20;;;2.45;;
15216;SDS011;7711;46.634;14.318;2023-07-13T13:04:26;4.60;;;2.28;;
15216;SDS011;7711;46.634;14.318;2023-07-13T13:07:02;5.22;;;2.53;;
15216;SDS011;7711;46.634;14.318;2023-07-13T13:09:33;3.60;;;2.03;;
15216;SDS011;7711;46.634;14.318;2023-07-13T13:12:00;6.20;;;2.35;;
15216;SDS011;7711;46.634;14.318;2023-07-13T13:14:27;5.13;;;2.67;;
15216;SDS011;7711;46.634;14.318;2023-07-13T13:16:55;3.40;;;2.58;;
15216;SDS011;7711;46.634;14.318;2023-07-13T13:19:23;7.25;;;2.88;;
15216;SDS011;7711;46.634;14.318;2023-07-13T13:21:52;3.97;;;2.50;;
15216;SDS011;7711;46.634;14.318;2023-07-13T13:24:22;4.93;;;3.00;;
15216;SDS011;7711;46.634;14.318;2023-07-13T13:26:52;3.10;;;2.78;;
15216;SDS011;7711;46.634;14.318;2023-07-13T13:29:22;4.25;;;2.85;;
15216;SDS011;7711;46.634;14.318;2023-07-13T13:31:50;4.80;;;2.80;;
15216;SDS011;7711;46.634;14.318;2023-07-13T13:34:19;4.93;;;2.63;;
15216;SDS011;7711;46.634;14.318;2023-07-13T13:36:48;3.42;;;2.38;;
15216;SDS011;7711;46.634;14.318;2023-07-13T13:39:20;3.58;;;2.60;;
15216;SDS011;7711;46.634;14.318;2023-07-13T13:41:49;4.68;;;2.50;;
15216;SDS011;7711;46.634;14.318;2023-07-13T13:44:20;7.03;;;2.55;;
15216;SDS011;7711;46.634;14.318;2023-07-13T13:46:49;3.38;;;2.60;;
15216;SDS011;7711;46.634;14.318;2023-07-13T13:49:20;3.85;;;2.35;;
15216;SDS011;7711;46.634;14.318;2023-07-13T13:51:49;4.65;;;2.47;;
15216;SDS011;7711;46.634;14.318;2023-07-13T13:54:16;2.83;;;2.60;;
15216;SDS011;7711;46.634;14.318;2023-07-13T13:56:47;3.67;;;2.88;;
15216;SDS011;7711;46.634;14.318;2023-07-13T13:59:17;3.28;;;2.63;;
15216;SDS011;7711;46.634;14.318;2023-07-13T14:01:45;3.85;;;2.50;;
15216;SDS011;7711;46.634;14.318;2023-07-13T14:04:15;2.83;;;2.53;;
15216;SDS011;7711;46.634;14.318;2023-07-13T14:06:44;3.15;;;2.50;;
15216;SDS011;7711;46.634;14.318;2023-07-13T14:09:12;3.60;;;2.72;;
15216;SDS011;7711;46.634;14.318;2023-07-13T14:11:41;3.15;;;2.50;;
15216;SDS011;7711;46.634;14.318;2023-07-13T14:14:09;4.13;;;2.40;;
15216;SDS011;7711;46.634;14.318;2023-07-13T14:16:42;4.70;;;2.55;;
15216;SDS011;7711;46.634;14.318;2023-07-13T14:19:11;2.50;;;2.30;;
15216;SDS011;7711;46.634;14.318;2023-07-13T14:21:40;2.60;;;2.17;;
15216;SDS011;7711;46.634;14.318;2023-07-13T14:24:07;6.40;;;2.40;;
15216;SDS011;7711;46.634;14.318;2023-07-13T14:26:36;3.63;;;2.42;;
15216;SDS011;7711;46.634;14.318;2023-07-13T14:29:10;2.90;;;2.30;;
15216;SDS011;7711;46.634;14.318;2023-07-13T14:31:39;4.13;;;2.30;;
15216;SDS011;7711;46.634;14.318;2023-07-13T14:34:09;3.60;;;2.35;;
15216;SDS011;7711;46.634;14.318;2023-07-13T14:36:38;3.55;;;2.58;;
15216;SDS011;7711;46.634;14.318;2023-07-13T14:39:11;2.55;;;2.13;;
15216;SDS011;7711;46.634;14.318;2023-07-13T14:41:42;3.13;;;2.30;;
15216;SDS011;7711;46.634;14.318;2023-07-13T14:44:13;5.43;;;2.60;;
15216;SDS011;7711;46.634;14.318;2023-07-13T14:46:43;4.22;;;2.47;;
15216;SDS011;7711;46.634;14.318;2023-07-13T14:49:13;2.63;;;2.40;;
15216;SDS011;7711;46.634;14.318;2023-07-13T14:51:47;2.97;;;2.30;;
15216;SDS011;7711;46.634;14.318;2023-07-13T14:54:15;2.50;;;2.30;;
15216;SDS011;7711;46.634;14.318;2023-07-13T14:56:42;5.40;;;2.60;;
15216;SDS011;7711;46.634;14.318;2023-07-13T14:59:10;4.60;;;2.50;;
15216;SDS011;7711;46.634;14.318;2023-07-13T15:01:38;4.60;;;2.58;;
15216;SDS011;7711;46.634;14.318;2023-07-13T15:04:09;3.58;;;2.58;;